createdAt,value
2022-10-22T00:00:07.362Z,80.54
2022-10-22T00:02:34.282Z,80.37
2022-10-22T00:05:01.109Z,80.46
2022-10-22T00:07:27.928Z,80.77
2022-10-22T00:09:54.760Z,80.85
2022-10-22T00:12:22.002Z,80.88
2022-10-22T00:14:49.512Z,80.79
2022-10-22T00:17:16.439Z,80.44
2022-10-22T00:19:43.287Z,80.17
2022-10-22T00:22:11.417Z,79.71
2022-10-22T00:24:39.594Z,79.91
2022-10-22T00:27:08.750Z,79.81
2022-10-22T00:29:35.637Z,79.56
2022-10-22T00:32:03.153Z,79.88
2022-10-22T00:34:29.967Z,80.35
2022-10-22T00:36:56.805Z,80.08
2022-10-22T00:39:25.613Z,80.41
2022-10-22T00:41:55.537Z,80.22
2022-10-22T00:45:02.927Z,80.60
2022-10-22T00:47:37.924Z,80.83
2022-10-22T00:50:09.959Z,80.65
2022-10-22T00:52:37.310Z,80.98
2022-10-22T00:55:05.196Z,81.15
2022-10-22T00:57:32.456Z,81.13
2022-10-22T00:59:59.283Z,81.66
2022-10-22T01:02:26.305Z,81.86
2022-10-22T01:04:53.085Z,81.59
2022-10-22T01:07:22.759Z,81.19
2022-10-22T01:10:24.529Z,81.73
2022-10-22T01:13:24.538Z,81.26
2022-10-22T01:16:22.255Z,81.07
2022-10-22T01:19:08.408Z,81.44
2022-10-22T01:21:44.419Z,81.01
2022-10-22T01:24:31.792Z,81.92
2022-10-22T01:27:43.965Z,82.01
2022-10-22T01:30:14.330Z,81.86
2022-10-22T01:32:50.303Z,81.81
2022-10-22T01:35:23.748Z,82.29
2022-10-22T01:37:57.353Z,81.96
2022-10-22T01:40:25.046Z,81.89
2022-10-22T01:43:07.982Z,82.16
2022-10-22T01:45:52.181Z,81.96
2022-10-22T01:48:51.731Z,81.89
2022-10-22T01:51:29.541Z,82.21
2022-10-22T01:54:14.225Z,81.76
2022-10-22T01:57:02.497Z,81.90
2022-10-22T01:59:54.768Z,81.97
2022-10-22T02:02:29.781Z,82.01
2022-10-22T02:05:08.396Z,82.29
2022-10-22T02:07:47.367Z,82.39
2022-10-22T02:10:15.910Z,81.84
2022-10-22T02:12:45.072Z,82.13
2022-10-22T02:15:14.792Z,82.18
2022-10-22T02:17:45.334Z,82.00
2022-10-22T02:20:33.477Z,82.05
2022-10-22T02:23:00.751Z,81.98
2022-10-22T02:25:37.112Z,82.24
2022-10-22T02:28:16.968Z,82.33
2022-10-22T02:30:51.360Z,82.18
2022-10-22T02:33:45.720Z,82.41
2022-10-22T02:36:14.557Z,83.54
2022-10-22T02:38:42.712Z,83.52
2022-10-22T02:41:09.981Z,83.00
2022-10-22T02:43:48.768Z,83.04
2022-10-22T02:46:15.588Z,83.38
2022-10-22T02:48:42.373Z,83.26
2022-10-22T02:51:09.139Z,83.36
2022-10-22T02:53:35.958Z,83.38
2022-10-22T02:56:03.165Z,83.66
2022-10-22T02:58:29.944Z,83.53
2022-10-22T03:00:56.742Z,83.58
2022-10-22T03:03:23.574Z,83.74
2022-10-22T03:05:53.502Z,83.36
2022-10-22T03:08:20.278Z,84.95
2022-10-22T03:10:47.072Z,84.26
2022-10-22T03:13:14.333Z,83.62
2022-10-22T03:15:41.126Z,83.72
2022-10-22T03:18:08.013Z,83.62
2022-10-22T03:20:35.350Z,83.32
2022-10-22T03:23:03.348Z,83.19
2022-10-22T03:25:34.379Z,83.18
2022-10-22T03:28:05.689Z,83.34
2022-10-22T03:30:32.510Z,82.93
2022-10-22T03:32:59.681Z,82.87
2022-10-22T03:35:26.646Z,82.72
2022-10-22T03:37:54.432Z,82.51
2022-10-22T03:40:21.540Z,82.68
2022-10-22T03:42:48.415Z,82.86
2022-10-22T03:45:15.269Z,82.87
2022-10-22T03:47:42.452Z,82.67
2022-10-22T03:50:10.155Z,82.71
2022-10-22T03:52:39.589Z,82.72
2022-10-22T03:55:07.274Z,83.24
2022-10-22T03:57:34.373Z,82.98
2022-10-22T04:00:01.221Z,83.10
2022-10-22T04:02:28.133Z,83.12
2022-10-22T04:04:54.918Z,83.38
2022-10-22T04:07:21.789Z,83.95
2022-10-22T04:09:48.569Z,83.34
2022-10-22T04:12:15.412Z,81.85
2022-10-22T04:14:42.187Z,83.33
2022-10-22T04:17:08.965Z,83.30
2022-10-22T04:19:35.840Z,83.05
2022-10-22T04:22:02.627Z,82.51
2022-10-22T04:24:31.894Z,82.43
2022-10-22T04:26:59.031Z,81.74
2022-10-22T04:29:27.060Z,81.78
2022-10-22T04:31:53.997Z,81.71
2022-10-22T04:34:20.912Z,81.70
2022-10-22T04:36:47.673Z,81.29
2022-10-22T04:39:15.194Z,81.13
2022-10-22T04:41:41.997Z,81.58
2022-10-22T04:44:12.271Z,81.72
2022-10-22T04:46:42.925Z,81.60
2022-10-22T04:49:09.727Z,81.79
2022-10-22T04:51:36.531Z,82.21
2022-10-22T04:54:04.592Z,81.79
2022-10-22T04:56:32.164Z,81.73
2022-10-22T04:59:06.117Z,82.00
2022-10-22T05:01:43.179Z,81.66
2022-10-22T05:04:16.692Z,81.15
2022-10-22T05:06:44.305Z,81.78
2022-10-22T05:09:19.769Z,81.69
2022-10-22T05:11:50.044Z,81.80
2022-10-22T05:14:23.589Z,82.89
2022-10-22T05:16:51.721Z,82.24
2022-10-22T05:19:30.825Z,81.66
2022-10-22T05:22:01.605Z,81.51
2022-10-22T05:24:30.090Z,81.59
2022-10-22T05:26:58.918Z,81.72
2022-10-22T05:29:26.612Z,82.02
2022-10-22T05:31:53.673Z,81.68
2022-10-22T05:34:20.472Z,81.49
2022-10-22T05:36:47.282Z,81.31
2022-10-22T05:39:14.099Z,81.76
2022-10-22T05:41:41.185Z,81.32
2022-10-22T05:44:07.973Z,81.74
2022-10-22T05:46:36.303Z,81.50
2022-10-22T05:49:06.822Z,81.65
2022-10-22T05:51:36.474Z,81.51
2022-10-22T05:54:06.411Z,81.58
2022-10-22T05:56:34.988Z,81.69
2022-10-22T06:01:37.773Z,81.45
2022-10-22T06:04:10.721Z,81.54
2022-10-22T06:06:43.214Z,81.96
2022-10-22T06:09:26.417Z,81.73
2022-10-22T06:11:53.465Z,81.92
2022-10-22T06:14:21.377Z,81.69
2022-10-22T06:16:49.058Z,81.90
2022-10-22T06:19:18.200Z,81.70
2022-10-22T06:21:45.711Z,81.43
2022-10-22T06:24:12.977Z,81.51
2022-10-22T06:26:41.016Z,81.36
2022-10-22T06:29:08.477Z,81.69
2022-10-22T06:31:39.258Z,81.77
2022-10-22T06:34:11.139Z,81.54
2022-10-22T06:36:38.507Z,81.84
2022-10-22T06:39:05.861Z,81.58
2022-10-22T06:41:32.637Z,81.34
2022-10-22T06:44:00.008Z,81.17
2022-10-22T06:46:27.278Z,81.24
2022-10-22T06:48:57.895Z,81.55
2022-10-22T06:51:26.177Z,81.61
2022-10-22T06:53:55.032Z,81.37
2022-10-22T06:56:26.425Z,81.80
2022-10-22T06:58:56.082Z,81.41
2022-10-22T07:01:27.872Z,82.18
2022-10-22T07:03:54.836Z,82.14
2022-10-22T07:06:23.968Z,82.20
2022-10-22T07:08:51.364Z,81.97
2022-10-22T07:11:23.561Z,82.24
2022-10-22T07:13:50.619Z,82.05
2022-10-22T07:16:18.474Z,82.34
2022-10-22T07:18:46.345Z,81.90
2022-10-22T07:21:16.147Z,82.06
2022-10-22T07:23:43.570Z,81.81
2022-10-22T07:26:14.582Z,81.65
2022-10-22T07:28:42.164Z,81.41
2022-10-22T07:31:11.677Z,81.43
2022-10-22T07:33:39.249Z,81.66
2022-10-22T07:36:09.248Z,81.61
2022-10-22T07:38:36.817Z,81.29
2022-10-22T07:41:04.148Z,80.89
2022-10-22T07:43:31.121Z,80.70
2022-10-22T07:45:59.524Z,79.51
2022-10-22T07:48:26.475Z,79.63
2022-10-22T07:50:53.273Z,79.24
2022-10-22T07:53:21.309Z,79.40
2022-10-22T07:55:50.340Z,79.12
2022-10-22T07:58:18.409Z,78.51
2022-10-22T08:00:45.654Z,79.30
2022-10-22T08:03:14.142Z,78.17
2022-10-22T08:05:43.643Z,78.72
2022-10-22T08:08:13.738Z,78.03
2022-10-22T08:10:41.005Z,76.44
2022-10-22T08:13:08.409Z,77.40
2022-10-22T08:15:36.112Z,78.25
2022-10-22T08:18:02.990Z,77.98
2022-10-22T08:20:29.817Z,78.16
2022-10-22T08:22:56.651Z,77.65
2022-10-22T08:25:23.576Z,75.21
2022-10-22T08:27:50.392Z,75.60
2022-10-22T08:30:17.592Z,76.30
2022-10-22T08:32:44.466Z,76.86
2022-10-22T08:35:14.177Z,76.50
2022-10-22T08:37:44.007Z,76.23
2022-10-22T08:40:23.930Z,77.33
2022-10-22T08:43:37.134Z,76.74
2022-10-22T08:46:16.765Z,76.39
2022-10-22T08:48:52.269Z,76.84
2022-10-22T08:51:26.608Z,76.30
2022-10-22T08:54:16.938Z,75.89
2022-10-22T08:56:49.849Z,75.88
2022-10-22T08:59:23.897Z,75.48
2022-10-22T09:01:53.973Z,74.96
2022-10-22T09:04:37.836Z,74.53
2022-10-22T09:07:04.789Z,73.58
2022-10-22T09:09:42.850Z,72.90
2022-10-22T09:12:19.326Z,72.79
2022-10-22T09:14:47.305Z,72.89
2022-10-22T09:17:33.761Z,72.65
2022-10-22T09:20:16.689Z,72.93
2022-10-22T09:23:15.646Z,72.79
2022-10-22T09:25:43.518Z,72.92
2022-10-22T09:28:10.417Z,73.29
2022-10-22T09:30:39.217Z,73.66
2022-10-22T09:33:28.023Z,73.44
2022-10-22T09:36:06.882Z,73.24
2022-10-22T09:38:40.580Z,73.46
2022-10-22T09:41:09.040Z,73.92
2022-10-22T09:43:36.396Z,73.62
2022-10-22T09:46:14.090Z,72.67
2022-10-22T09:49:12.067Z,71.04
2022-10-22T09:52:00.071Z,69.99
2022-10-22T09:54:42.523Z,70.63
2022-10-22T09:57:22.374Z,70.65
2022-10-22T09:59:51.368Z,70.29
2022-10-22T10:02:37.426Z,69.94
2022-10-22T10:05:06.572Z,70.15
2022-10-22T10:07:35.752Z,70.36
2022-10-22T10:10:17.052Z,70.72
2022-10-22T10:12:55.819Z,70.76
2022-10-22T10:15:47.824Z,70.94
2022-10-22T10:18:43.129Z,71.83
2022-10-22T10:21:32.057Z,71.65
2022-10-22T10:24:20.200Z,72.09
2022-10-22T10:26:59.025Z,72.17
2022-10-22T10:29:59.180Z,73.31
2022-10-22T10:32:53.884Z,74.38
2022-10-22T10:35:27.558Z,73.80
2022-10-22T10:38:42.476Z,74.06
2022-10-22T10:41:29.108Z,73.66
2022-10-22T10:44:28.521Z,74.44
2022-10-22T10:47:25.625Z,75.17
2022-10-22T10:50:01.621Z,75.94
2022-10-22T10:53:02.483Z,75.84
2022-10-22T10:55:41.309Z,74.63
2022-10-22T10:58:46.186Z,74.78
2022-10-22T11:01:58.114Z,74.08
2022-10-22T11:04:55.244Z,71.65
2022-10-22T11:07:34.746Z,72.00
2022-10-22T11:10:32.406Z,71.35
2022-10-22T11:13:29.555Z,71.24
2022-10-22T11:16:03.633Z,68.99
2022-10-22T11:18:40.743Z,69.16
2022-10-22T11:21:11.409Z,67.00
2022-10-22T11:24:11.213Z,63.88
2022-10-22T11:26:49.061Z,65.30
2022-10-22T11:29:22.956Z,64.16
2022-10-22T11:31:52.085Z,64.36
2022-10-22T11:34:43.713Z,65.73
2022-10-22T11:37:13.670Z,66.69
2022-10-22T11:39:54.136Z,65.42
2022-10-22T11:42:39.091Z,65.40
2022-10-22T11:45:14.099Z,66.05
2022-10-22T11:48:16.543Z,66.69
2022-10-22T11:51:02.363Z,67.83
2022-10-22T11:53:37.234Z,69.70
2022-10-22T11:56:06.971Z,71.23
2022-10-22T11:58:47.701Z,70.87
2022-10-22T12:01:29.723Z,69.72
2022-10-22T12:03:59.545Z,70.31
2022-10-22T12:06:28.770Z,69.06
2022-10-22T12:09:04.782Z,66.38
2022-10-22T12:11:47.662Z,66.60
2022-10-22T12:14:26.584Z,63.11
2022-10-22T12:16:57.968Z,61.88
2022-10-22T12:19:44.959Z,57.20
2022-10-22T12:22:24.311Z,54.98
2022-10-22T12:24:55.457Z,52.39
2022-10-22T12:27:26.054Z,46.72
2022-10-22T12:29:59.526Z,41.80
2022-10-22T12:32:39.784Z,40.74
2022-10-22T12:35:15.246Z,39.53
2022-10-22T12:37:42.489Z,35.50
2022-10-22T12:40:28.707Z,38.13
2022-10-22T12:43:03.035Z,35.33
2022-10-22T12:45:33.465Z,39.15
2022-10-22T12:48:07.210Z,38.28
2022-10-22T12:50:41.050Z,40.32
2022-10-22T12:53:35.791Z,41.84
2022-10-22T12:56:06.685Z,43.28
2022-10-22T12:58:45.950Z,41.09
2022-10-22T13:01:16.354Z,42.50
2022-10-22T13:03:49.792Z,45.19
2022-10-22T13:06:20.472Z,48.47
2022-10-22T13:09:00.163Z,50.95
2022-10-22T13:11:53.432Z,44.09
2022-10-22T13:14:34.413Z,41.37
2022-10-22T13:17:13.335Z,41.93
2022-10-22T13:19:49.755Z,40.93
2022-10-22T13:22:36.631Z,42.15
2022-10-22T13:25:19.426Z,39.80
2022-10-22T13:27:50.318Z,37.67
2022-10-22T13:30:34.067Z,36.65
2022-10-22T13:33:23.359Z,38.82
2022-10-22T13:35:50.203Z,39.08
2022-10-22T13:38:20.289Z,36.04
2022-10-22T13:40:47.478Z,37.09
2022-10-22T13:43:15.050Z,36.17
2022-10-22T13:45:42.132Z,34.48
2022-10-22T13:48:15.463Z,33.70
2022-10-22T13:50:42.578Z,33.15
2022-10-22T13:53:23.390Z,33.92
2022-10-22T13:55:50.481Z,35.73
2022-10-22T13:58:21.062Z,38.99
2022-10-22T14:00:52.302Z,42.53
2022-10-22T14:03:21.889Z,40.42
2022-10-22T14:05:49.526Z,37.26
2022-10-22T14:08:20.213Z,38.11
2022-10-22T14:10:47.458Z,40.88
2022-10-22T14:13:16.858Z,37.26
2022-10-22T14:15:46.965Z,34.87
2022-10-22T14:18:25.337Z,35.46
2022-10-22T14:20:58.473Z,38.77
2022-10-22T14:23:30.167Z,42.25
2022-10-22T14:25:58.821Z,46.12
2022-10-22T14:28:31.374Z,46.22
2022-10-22T14:30:58.664Z,43.40
2022-10-22T14:33:32.525Z,40.35
2022-10-22T14:36:02.979Z,38.34
2022-10-22T14:38:29.899Z,36.98
2022-10-22T14:40:57.940Z,34.56
2022-10-22T14:43:29.276Z,34.14
2022-10-22T14:45:56.137Z,33.54
2022-10-22T14:48:23.443Z,33.18
2022-10-22T14:50:50.711Z,33.25
2022-10-22T14:53:17.695Z,34.37
2022-10-22T14:55:48.980Z,37.22
2022-10-22T14:58:16.023Z,38.93
2022-10-22T15:00:43.571Z,41.15
2022-10-22T15:03:11.694Z,43.30
2022-10-22T15:05:45.366Z,46.67
2022-10-22T15:08:14.317Z,48.70
2022-10-22T15:10:41.689Z,51.32
2022-10-22T15:13:08.722Z,54.77
2022-10-22T15:15:39.490Z,55.74
2022-10-22T15:18:06.940Z,58.68
2022-10-22T15:20:33.814Z,60.08
2022-10-22T15:23:00.751Z,60.86
2022-10-22T15:25:28.593Z,61.98
2022-10-22T15:28:00.575Z,62.66
2022-10-22T15:30:31.962Z,63.34
2022-10-22T15:32:58.765Z,63.87
2022-10-22T15:35:28.532Z,63.85
2022-10-22T15:37:56.461Z,64.01
2022-10-22T15:40:23.225Z,65.05
2022-10-22T15:42:50.021Z,65.98
2022-10-22T15:45:16.967Z,66.41
2022-10-22T15:47:49.804Z,66.73
2022-10-22T15:50:17.207Z,66.94
2022-10-22T15:52:44.027Z,67.91
2022-10-22T15:57:43.289Z,68.48
2022-10-22T16:00:11.241Z,68.89
2022-10-22T16:02:38.028Z,68.96
2022-10-22T16:05:05.304Z,69.48
2022-10-22T16:07:32.082Z,69.97
2022-10-22T16:10:02.522Z,69.99
2022-10-22T16:12:29.431Z,70.47
2022-10-22T16:14:56.217Z,70.56
2022-10-22T16:17:23.456Z,70.53
2022-10-22T16:19:50.261Z,70.73
2022-10-22T16:22:17.088Z,70.98
2022-10-22T16:24:43.961Z,71.03
2022-10-22T16:27:10.893Z,71.30
2022-10-22T16:29:41.968Z,72.13
2022-10-22T16:32:08.926Z,72.40
2022-10-22T16:34:35.687Z,72.88
2022-10-22T16:37:02.568Z,73.96
2022-10-22T16:39:29.542Z,74.38
2022-10-22T16:41:56.373Z,74.97
2022-10-22T16:44:23.716Z,75.75
2022-10-22T16:46:50.508Z,75.75
2022-10-22T16:49:17.301Z,76.97
2022-10-22T16:51:44.105Z,78.05
2022-10-22T16:54:14.017Z,78.00
2022-10-22T16:56:41.073Z,78.28
2022-10-22T16:59:07.988Z,78.27
2022-10-22T17:01:38.125Z,78.24
2022-10-22T17:04:07.338Z,78.49
2022-10-22T17:06:34.308Z,78.30
2022-10-22T17:09:01.174Z,78.32
2022-10-22T17:11:30.179Z,78.38
2022-10-22T17:13:57.092Z,78.04
2022-10-22T17:16:24.934Z,78.22
2022-10-22T17:18:54.138Z,78.05
2022-10-22T17:21:22.381Z,78.23
2022-10-22T17:23:52.144Z,77.84
2022-10-22T17:26:22.745Z,77.87
2022-10-22T17:28:50.059Z,77.62
2022-10-22T17:31:24.416Z,78.15
2022-10-22T17:33:53.889Z,78.57
2022-10-22T17:36:22.941Z,78.64
2022-10-22T17:38:55.592Z,78.79
2022-10-22T17:41:26.869Z,78.44
2022-10-22T17:43:55.719Z,78.64
2022-10-22T17:46:28.733Z,78.18
2022-10-22T17:49:01.748Z,78.50
2022-10-22T17:51:30.487Z,78.40
2022-10-22T17:53:57.756Z,78.64
2022-10-22T17:56:27.964Z,78.71
2022-10-22T17:58:56.111Z,78.35
2022-10-22T18:01:29.466Z,78.59
2022-10-22T18:04:05.468Z,79.13
2022-10-22T18:06:33.070Z,79.73
2022-10-22T18:09:00.117Z,79.42
2022-10-22T18:11:28.522Z,79.10
2022-10-22T18:13:57.098Z,79.19
2022-10-22T18:16:25.458Z,79.03
2022-10-22T18:18:56.002Z,78.37
2022-10-22T18:21:26.843Z,78.63
2022-10-22T18:23:54.677Z,78.49
2022-10-22T18:26:25.823Z,78.11
2022-10-22T18:28:54.431Z,78.23
2022-10-22T18:31:27.817Z,78.89
2022-10-22T18:33:55.276Z,78.82
2022-10-22T18:36:25.433Z,78.43
2022-10-22T18:38:58.540Z,78.62
2022-10-22T18:41:27.212Z,78.82
2022-10-22T18:43:57.290Z,78.85
2022-10-22T18:46:25.380Z,79.18
2022-10-22T18:48:57.718Z,78.86
2022-10-22T18:51:30.483Z,78.77
2022-10-22T18:54:11.359Z,79.21
2022-10-22T18:56:44.809Z,79.48
2022-10-22T18:59:30.452Z,79.37
2022-10-22T19:02:00.468Z,79.10
2022-10-22T19:04:33.062Z,79.32
2022-10-22T19:06:59.939Z,79.53
2022-10-22T19:09:26.853Z,79.89
2022-10-22T19:11:53.991Z,79.96
2022-10-22T19:14:22.075Z,80.22
2022-10-22T19:16:49.918Z,80.26
2022-10-22T19:19:21.726Z,80.18
2022-10-22T19:21:49.422Z,80.04
2022-10-22T19:24:19.184Z,79.90
2022-10-22T19:26:47.826Z,79.86
2022-10-22T19:29:18.268Z,80.22
2022-10-22T19:31:46.323Z,80.72
2022-10-22T19:34:14.179Z,81.16
2022-10-22T19:36:41.194Z,81.08
2022-10-22T19:39:09.031Z,80.22
2022-10-22T19:41:35.976Z,80.44
2022-10-22T19:44:03.215Z,80.56
2022-10-22T19:46:32.886Z,80.74
2022-10-22T19:49:02.556Z,80.71
2022-10-22T19:51:31.736Z,81.13
2022-10-22T19:54:01.522Z,81.42
2022-10-22T19:56:29.769Z,81.38
2022-10-22T19:58:57.457Z,81.14
2022-10-22T20:01:24.928Z,80.88
2022-10-22T20:03:52.708Z,80.72
2022-10-22T20:06:20.105Z,80.76
2022-10-22T20:08:47.404Z,80.64
2022-10-22T20:11:24.834Z,80.34
2022-10-22T20:13:52.623Z,79.72
2022-10-22T20:16:24.250Z,79.75
2022-10-22T20:18:52.248Z,80.02
2022-10-22T20:21:20.911Z,80.68
2022-10-22T20:23:51.736Z,80.50
2022-10-22T20:26:19.720Z,79.74
2022-10-22T20:28:48.107Z,80.01
2022-10-22T20:31:19.758Z,80.69
2022-10-22T20:33:47.868Z,80.73
2022-10-22T20:36:20.393Z,81.12
2022-10-22T20:38:48.217Z,81.17
2022-10-22T20:41:24.493Z,81.13
2022-10-22T20:43:52.273Z,80.96
2022-10-22T20:46:29.660Z,80.54
2022-10-22T20:49:07.492Z,80.36
2022-10-22T20:51:36.780Z,79.98
2022-10-22T20:54:05.106Z,80.07
2022-10-22T20:56:32.327Z,79.82
2022-10-22T20:59:07.918Z,79.64
2022-10-22T21:01:46.814Z,78.57
2022-10-22T21:04:13.771Z,78.53
2022-10-22T21:06:42.751Z,79.59
2022-10-22T21:09:13.052Z,79.50
2022-10-22T21:11:41.873Z,79.77
2022-10-22T21:14:11.125Z,80.23
2022-10-22T21:16:42.320Z,80.84
2022-10-22T21:19:09.136Z,81.12
2022-10-22T21:21:35.903Z,81.37
2022-10-22T21:24:02.693Z,81.39
2022-10-22T21:26:29.741Z,81.41
2022-10-22T21:28:56.504Z,80.37
2022-10-22T21:31:26.198Z,79.58
2022-10-22T21:33:54.392Z,79.50
2022-10-22T21:36:23.565Z,79.80
2022-10-22T21:38:54.456Z,79.06
2022-10-22T21:41:24.261Z,78.38
2022-10-22T21:43:52.209Z,78.17
2022-10-22T21:46:22.440Z,78.57
2022-10-22T21:49:02.302Z,78.09
2022-10-22T21:51:32.322Z,77.61
2022-10-22T21:53:59.416Z,78.74
2022-10-22T21:56:29.865Z,80.39
2022-10-22T21:58:56.650Z,80.51
2022-10-22T22:01:23.914Z,80.59
2022-10-22T22:03:52.390Z,80.75
2022-10-22T22:06:22.985Z,79.30
2022-10-22T22:08:52.522Z,80.08
2022-10-22T22:11:24.602Z,80.65
2022-10-22T22:13:53.337Z,81.07
2022-10-22T22:16:28.091Z,80.83
2022-10-22T22:19:00.753Z,80.69
2022-10-22T22:21:28.453Z,80.13
2022-10-22T22:23:56.617Z,80.32
2022-10-22T22:26:29.674Z,80.36
2022-10-22T22:28:58.525Z,80.61
2022-10-22T22:31:32.122Z,80.39
2022-10-22T22:34:04.125Z,80.66
2022-10-22T22:36:37.260Z,80.78
2022-10-22T22:39:06.572Z,81.47
2022-10-22T22:41:34.274Z,81.15
2022-10-22T22:44:01.457Z,80.92
2022-10-22T22:46:28.338Z,80.94
2022-10-22T22:48:55.564Z,80.70
2022-10-22T22:51:22.376Z,80.65
2022-10-22T22:53:49.261Z,80.80
2022-10-22T22:56:27.609Z,81.02
2022-10-22T22:58:55.178Z,80.63
2022-10-22T23:01:29.060Z,80.64
2022-10-22T23:04:08.759Z,80.57
2022-10-22T23:06:37.657Z,80.25
2022-10-22T23:09:07.643Z,80.24
2022-10-22T23:11:34.763Z,79.34
2022-10-22T23:14:04.995Z,79.28
2022-10-22T23:16:36.703Z,80.12
2022-10-22T23:19:04.766Z,80.72
2022-10-22T23:21:35.916Z,80.76
2022-10-22T23:24:08.058Z,80.55
2022-10-22T23:26:38.776Z,79.94
2022-10-22T23:29:15.746Z,79.48
2022-10-22T23:31:44.115Z,79.35
2022-10-22T23:34:15.923Z,79.40
2022-10-22T23:36:43.176Z,79.71
2022-10-22T23:39:13.599Z,79.41
2022-10-22T23:41:40.544Z,79.88
2022-10-22T23:44:08.875Z,80.29
2022-10-22T23:46:35.920Z,80.12
2022-10-22T23:49:02.724Z,79.95
2022-10-22T23:51:29.518Z,79.50
2022-10-22T23:54:03.064Z,79.83
2022-10-22T23:56:30.265Z,79.66
2022-10-22T23:58:58.156Z,79.57
